createdAt,value
2019-05-26T00:01:01.259Z,2.47
2019-05-26T00:05:03.407Z,2.50
2019-05-26T00:09:06.643Z,2.60
2019-05-26T00:13:08.794Z,1.73
2019-05-26T00:17:10.905Z,2.07
2019-05-26T00:21:14.790Z,2.63
2019-05-26T00:25:17.100Z,2.70
2019-05-26T00:29:19.151Z,2.10
2019-05-26T00:33:21.373Z,2.03
2019-05-26T00:37:23.496Z,2.50
2019-05-26T00:41:26.654Z,2.30
2019-05-26T00:45:28.834Z,2.47
2019-05-26T00:49:31.013Z,2.47
2019-05-26T00:53:33.108Z,2.10
2019-05-26T00:57:35.159Z,2.20
2019-05-26T01:01:37.245Z,2.47
2019-05-26T01:05:39.490Z,2.20
2019-05-26T01:09:41.628Z,2.20
2019-05-26T01:13:43.570Z,1.87
2019-05-26T01:17:45.682Z,1.90
2019-05-26T01:21:47.747Z,2.00
2019-05-26T01:25:51.055Z,1.90
2019-05-26T01:29:53.091Z,1.70
2019-05-26T01:33:55.258Z,1.73
2019-05-26T01:37:57.577Z,2.00
2019-05-26T01:41:59.682Z,2.27
2019-05-26T01:46:01.795Z,2.07
2019-05-26T01:50:04.106Z,1.70
2019-05-26T01:54:06.416Z,1.97
2019-05-26T01:58:08.833Z,2.30
2019-05-26T02:02:11.052Z,1.57
2019-05-26T02:06:13.164Z,1.90
2019-05-26T02:10:15.735Z,1.77
2019-05-26T02:14:17.809Z,1.73
2019-05-26T02:18:19.867Z,2.20
2019-05-26T02:22:21.989Z,2.10
2019-05-26T02:26:24.509Z,1.70
2019-05-26T02:30:26.732Z,1.40
2019-05-26T02:34:28.752Z,1.80
2019-05-26T02:38:30.900Z,1.70
2019-05-26T02:42:33.031Z,1.70
2019-05-26T02:46:35.248Z,1.73
2019-05-26T02:50:37.418Z,1.90
2019-05-26T02:54:39.471Z,1.60
2019-05-26T02:58:41.577Z,1.50
2019-05-26T03:02:43.946Z,2.20
2019-05-26T03:06:47.332Z,1.77
2019-05-26T03:10:51.465Z,1.50
2019-05-26T03:14:55.663Z,2.10
2019-05-26T03:18:59.700Z,1.50
2019-05-26T03:23:03.920Z,2.00
2019-05-26T03:27:06.260Z,1.73
2019-05-26T03:31:08.876Z,2.10
2019-05-26T03:35:11.650Z,1.47
2019-05-26T03:39:13.742Z,1.50
2019-05-26T03:43:15.811Z,1.53
2019-05-26T03:47:17.958Z,1.63
2019-05-26T03:51:20.131Z,1.80
2019-05-26T03:55:22.317Z,1.23
2019-05-26T03:59:24.606Z,1.60
2019-05-26T04:03:26.709Z,1.50
2019-05-26T04:07:29.055Z,1.30
2019-05-26T04:11:30.983Z,1.17
2019-05-26T04:15:33.256Z,1.03
2019-05-26T04:19:35.251Z,1.57
2019-05-26T04:23:37.419Z,1.50
2019-05-26T04:27:39.563Z,1.10
2019-05-26T04:31:41.735Z,1.20
2019-05-26T04:35:43.972Z,1.23
2019-05-26T04:39:46.094Z,0.97
2019-05-26T04:43:48.257Z,1.30
2019-05-26T04:47:50.329Z,1.10
2019-05-26T04:51:52.400Z,1.17
2019-05-26T04:55:54.544Z,0.87
2019-05-26T04:59:56.548Z,0.70
2019-05-26T05:03:58.693Z,0.80
2019-05-26T05:08:00.937Z,1.23
2019-05-26T05:12:03.020Z,0.70
2019-05-26T05:16:05.065Z,1.67
2019-05-26T05:20:07.384Z,0.90
2019-05-26T05:24:09.546Z,0.97
2019-05-26T05:28:11.639Z,0.80
2019-05-26T05:32:13.668Z,0.97
2019-05-26T05:36:15.789Z,1.10
2019-05-26T05:40:19.644Z,1.00
2019-05-26T05:44:21.904Z,0.90
2019-05-26T05:48:24.052Z,0.90
2019-05-26T05:52:27.195Z,0.90
2019-05-26T05:56:29.320Z,1.00
2019-05-26T06:00:31.425Z,1.00
2019-05-26T06:04:33.582Z,1.07
2019-05-26T06:08:35.560Z,1.00
2019-05-26T06:12:37.893Z,0.90
2019-05-26T06:16:40.024Z,1.10
2019-05-26T06:20:42.113Z,0.80
2019-05-26T06:24:44.330Z,1.30
2019-05-26T06:28:46.433Z,1.00
2019-05-26T06:32:49.609Z,1.80
2019-05-26T06:36:51.539Z,1.30
2019-05-26T06:40:53.825Z,1.43
2019-05-26T06:44:56.113Z,1.40
2019-05-26T06:48:58.301Z,1.83
2019-05-26T06:53:00.429Z,1.67
2019-05-26T06:57:02.731Z,1.23
2019-05-26T07:01:04.910Z,0.90
2019-05-26T07:05:07.499Z,1.00
2019-05-26T07:09:09.653Z,1.10
2019-05-26T07:13:11.945Z,0.80
2019-05-26T07:17:14.077Z,0.73
2019-05-26T07:21:16.271Z,0.93
2019-05-26T07:25:18.547Z,0.70
2019-05-26T07:29:20.733Z,0.90
2019-05-26T07:33:22.818Z,0.83
2019-05-26T07:37:24.938Z,1.10
2019-05-26T07:41:27.094Z,0.90
2019-05-26T07:45:29.349Z,0.83
2019-05-26T07:49:31.659Z,0.90
2019-05-26T07:53:33.811Z,1.00
2019-05-26T07:57:35.903Z,0.80
2019-05-26T08:01:38.120Z,0.70
2019-05-26T08:05:40.259Z,0.90
2019-05-26T08:09:42.540Z,1.10
2019-05-26T08:13:44.593Z,0.50
2019-05-26T08:17:46.744Z,1.00
2019-05-26T08:21:48.702Z,1.17
2019-05-26T08:25:50.770Z,3.27
2019-05-26T08:29:52.951Z,4.10
2019-05-26T08:33:55.040Z,1.57
2019-05-26T08:37:57.198Z,1.00
2019-05-26T08:41:59.586Z,0.73
2019-05-26T08:46:01.766Z,0.90
2019-05-26T08:50:04.085Z,1.10
2019-05-26T08:54:06.432Z,2.80
2019-05-26T08:58:08.717Z,7.40
2019-05-26T09:02:10.874Z,5.27
2019-05-26T09:06:12.973Z,4.20
2019-05-26T09:10:16.533Z,3.30
2019-05-26T09:14:18.812Z,2.27
2019-05-26T09:18:20.887Z,2.33
2019-05-26T09:22:22.932Z,1.80
2019-05-26T09:26:24.948Z,1.70
2019-05-26T09:30:27.156Z,2.33
2019-05-26T09:34:29.475Z,1.73
2019-05-26T09:38:31.529Z,1.93
2019-05-26T09:42:33.893Z,2.13
2019-05-26T09:46:36.883Z,2.13
2019-05-26T09:50:40.616Z,2.10
2019-05-26T09:54:43.161Z,2.33
2019-05-26T09:58:45.581Z,2.27
2019-05-26T10:02:47.784Z,2.33
2019-05-26T10:06:49.725Z,2.10
2019-05-26T10:10:51.846Z,2.07
2019-05-26T10:14:54.054Z,2.00
2019-05-26T10:18:56.202Z,1.80
2019-05-26T10:22:58.354Z,2.33
2019-05-26T10:27:00.441Z,2.53
2019-05-26T10:31:02.645Z,2.30
2019-05-26T10:35:05.233Z,1.97
2019-05-26T10:39:08.707Z,2.00
2019-05-26T10:43:10.808Z,2.70
2019-05-26T10:47:12.948Z,2.97
2019-05-26T10:51:14.962Z,3.27
2019-05-26T10:55:17.133Z,3.93
2019-05-26T10:59:19.017Z,4.03
2019-05-26T11:03:21.163Z,3.73
2019-05-26T11:07:26.665Z,4.17
2019-05-26T11:11:26.857Z,3.47
2019-05-26T11:15:28.975Z,3.10
2019-05-26T11:19:31.096Z,3.30
2019-05-26T11:23:33.200Z,3.57
2019-05-26T11:27:35.501Z,2.70
2019-05-26T11:31:37.923Z,2.20
2019-05-26T11:35:39.739Z,2.30
2019-05-26T11:39:41.714Z,3.00
2019-05-26T11:43:43.748Z,2.10
2019-05-26T11:47:45.912Z,2.40
2019-05-26T11:51:47.688Z,2.67
2019-05-26T11:55:49.879Z,2.70
2019-05-26T11:59:51.991Z,2.90
2019-05-26T12:03:55.179Z,2.87
2019-05-26T12:07:58.560Z,2.23
2019-05-26T12:12:00.693Z,2.70
2019-05-26T12:16:02.736Z,1.93
2019-05-26T12:20:05.833Z,2.10
2019-05-26T12:24:09.554Z,3.10
2019-05-26T12:28:11.807Z,2.43
2019-05-26T12:32:14.168Z,2.40
2019-05-26T12:36:16.938Z,1.40
2019-05-26T12:40:19.211Z,1.57
2019-05-26T12:44:21.493Z,1.80
2019-05-26T12:48:23.758Z,1.50
2019-05-26T12:52:26.772Z,1.50
2019-05-26T12:56:29.702Z,1.40
2019-05-26T13:00:47.378Z,1.67
2019-05-26T13:04:43.009Z,1.40
2019-05-26T13:08:47.927Z,1.63
2019-05-26T13:12:51.844Z,1.27
2019-05-26T13:16:56.453Z,1.20
2019-05-26T13:21:03.801Z,1.27
2019-05-26T13:25:11.547Z,1.47
2019-05-26T13:29:15.668Z,1.57
2019-05-26T13:33:18.834Z,1.30
2019-05-26T13:37:22.624Z,1.17
2019-05-26T13:41:28.299Z,1.20
2019-05-26T13:45:33.990Z,1.27
2019-05-26T13:49:37.172Z,0.70
2019-05-26T13:53:43.472Z,1.40
2019-05-26T13:57:52.169Z,3.37
2019-05-26T14:01:55.779Z,0.80
2019-05-26T14:06:04.011Z,1.03
2019-05-26T14:10:12.439Z,0.63
2019-05-26T14:14:20.323Z,0.87
2019-05-26T14:18:30.641Z,0.90
2019-05-26T14:22:35.066Z,0.80
2019-05-26T14:26:43.147Z,1.03
2019-05-26T14:30:48.441Z,1.10
2019-05-26T14:34:54.215Z,0.83
2019-05-26T14:38:59.325Z,0.97
2019-05-26T14:43:03.493Z,0.60
2019-05-26T14:47:06.179Z,0.90
2019-05-26T14:51:08.250Z,0.73
2019-05-26T14:55:10.551Z,1.00
2019-05-26T14:59:12.582Z,0.60
2019-05-26T15:03:14.722Z,0.47
2019-05-26T15:07:16.873Z,0.30
2019-05-26T15:11:18.873Z,0.57
2019-05-26T15:15:21.288Z,0.50
2019-05-26T15:19:23.487Z,0.40
2019-05-26T15:23:25.780Z,0.53
2019-05-26T15:27:27.894Z,0.37
2019-05-26T15:31:30.247Z,0.50
2019-05-26T15:35:32.473Z,0.53
2019-05-26T15:39:34.893Z,0.70
2019-05-26T15:43:37.021Z,0.70
2019-05-26T15:47:39.064Z,0.67
2019-05-26T15:51:41.152Z,0.60
2019-05-26T15:55:43.638Z,0.70
2019-05-26T15:59:45.787Z,0.73
2019-05-26T16:03:48.078Z,0.57
2019-05-26T16:07:50.709Z,0.80
2019-05-26T16:11:53.995Z,0.77
2019-05-26T16:15:56.080Z,0.90
2019-05-26T16:19:58.145Z,0.77
2019-05-26T16:24:00.155Z,0.60
2019-05-26T16:28:02.607Z,0.70
2019-05-26T16:32:05.028Z,0.47
2019-05-26T16:36:07.153Z,1.00
2019-05-26T16:40:09.568Z,0.60
2019-05-26T16:44:12.320Z,0.60
2019-05-26T16:48:14.447Z,0.90
2019-05-26T16:52:17.493Z,0.67
2019-05-26T16:56:19.700Z,0.97
2019-05-26T17:00:22.056Z,0.53
2019-05-26T17:04:24.273Z,0.80
2019-05-26T17:08:26.344Z,0.70
2019-05-26T17:12:28.360Z,0.80
2019-05-26T17:16:30.532Z,0.97
2019-05-26T17:20:32.681Z,0.50
2019-05-26T17:24:35.164Z,1.13
2019-05-26T17:28:37.413Z,0.60
2019-05-26T17:32:40.740Z,0.83
2019-05-26T17:36:42.881Z,0.70
2019-05-26T17:40:45.912Z,0.70
2019-05-26T17:44:48.052Z,0.57
2019-05-26T17:48:50.456Z,0.70
2019-05-26T17:52:52.679Z,0.80
2019-05-26T17:56:54.835Z,0.80
2019-05-26T18:00:56.958Z,0.90
2019-05-26T18:04:59.097Z,0.80
2019-05-26T18:09:01.202Z,0.67
2019-05-26T18:13:04.884Z,1.00
2019-05-26T18:17:07.053Z,1.67
2019-05-26T18:21:09.166Z,1.10
2019-05-26T18:25:13.520Z,0.90
2019-05-26T18:29:15.654Z,1.23
2019-05-26T18:33:17.735Z,0.93
2019-05-26T18:37:19.801Z,1.10
2019-05-26T18:41:21.912Z,1.70
2019-05-26T18:45:24.045Z,1.20
2019-05-26T18:49:26.282Z,1.40
2019-05-26T18:53:29.852Z,1.47
2019-05-26T18:57:32.152Z,1.37
2019-05-26T19:01:34.597Z,1.33
2019-05-26T19:05:38.521Z,2.10
2019-05-26T19:09:40.619Z,1.57
2019-05-26T19:13:43.030Z,1.53
2019-05-26T19:17:45.471Z,1.90
2019-05-26T19:21:47.618Z,1.53
2019-05-26T19:25:50.066Z,2.27
2019-05-26T19:29:52.056Z,1.80
2019-05-26T19:33:54.089Z,1.93
2019-05-26T19:37:56.201Z,1.50
2019-05-26T19:41:58.234Z,1.53
2019-05-26T19:46:00.417Z,2.00
2019-05-26T19:50:02.385Z,1.80
2019-05-26T19:54:04.621Z,1.43
2019-05-26T19:58:06.849Z,1.50
2019-05-26T20:02:18.401Z,2.30
2019-05-26T20:06:13.250Z,1.87
2019-05-26T20:10:15.714Z,1.57
2019-05-26T20:14:17.721Z,1.73
2019-05-26T20:18:20.072Z,1.87
2019-05-26T20:22:24.530Z,1.97
2019-05-26T20:26:26.024Z,1.63
2019-05-26T20:30:29.816Z,1.63
2019-05-26T20:34:32.234Z,1.77
2019-05-26T20:38:34.355Z,1.90
2019-05-26T20:42:36.470Z,2.13
2019-05-26T20:46:38.540Z,1.63
2019-05-26T20:50:40.648Z,1.83
2019-05-26T20:54:42.789Z,1.70
2019-05-26T20:58:44.914Z,1.87
2019-05-26T21:02:47.048Z,2.03
2019-05-26T21:06:49.280Z,2.00
2019-05-26T21:10:51.389Z,1.90
2019-05-26T21:14:53.518Z,1.80
2019-05-26T21:18:55.640Z,1.60
2019-05-26T21:22:57.799Z,2.50
2019-05-26T21:26:59.812Z,1.70
2019-05-26T21:31:01.819Z,2.30
2019-05-26T21:35:04.170Z,2.17
2019-05-26T21:39:07.936Z,1.93
2019-05-26T21:43:10.076Z,2.23
2019-05-26T21:47:12.315Z,1.90
2019-05-26T21:51:14.436Z,2.80
2019-05-26T21:55:16.538Z,2.20
2019-05-26T21:59:19.605Z,2.57
2019-05-26T22:03:21.717Z,2.83
2019-05-26T22:07:23.958Z,2.70
2019-05-26T22:11:26.176Z,2.40
2019-05-26T22:15:28.592Z,3.10
2019-05-26T22:19:30.821Z,2.60
2019-05-26T22:23:33.192Z,2.30
2019-05-26T22:27:35.638Z,3.00
2019-05-26T22:31:38.983Z,2.60
2019-05-26T22:35:41.524Z,2.77
2019-05-26T22:39:43.817Z,2.90
2019-05-26T22:43:46.155Z,3.07
2019-05-26T22:47:48.477Z,2.97
2019-05-26T22:51:50.859Z,2.43
2019-05-26T22:55:53.035Z,2.80
2019-05-26T22:59:55.371Z,3.43
2019-05-26T23:03:57.645Z,2.93
2019-05-26T23:07:59.951Z,2.50
2019-05-26T23:12:02.184Z,1.93
2019-05-26T23:16:04.785Z,2.23
2019-05-26T23:20:07.443Z,2.00
2019-05-26T23:24:09.833Z,1.50
2019-05-26T23:28:12.137Z,1.40
2019-05-26T23:32:14.259Z,1.20
2019-05-26T23:36:16.207Z,1.33
2019-05-26T23:40:18.450Z,1.40
2019-05-26T23:44:20.988Z,1.13
2019-05-26T23:48:23.117Z,0.90
2019-05-26T23:52:25.214Z,1.00
2019-05-26T23:56:27.365Z,0.80
